createdAt,value
2023-05-11T00:00:14.308Z,53.70
2023-05-11T00:01:14.280Z,50.38
2023-05-11T00:02:14.305Z,48.36
2023-05-11T00:03:14.419Z,47.98
2023-05-11T00:04:14.278Z,53.69
2023-05-11T00:05:14.271Z,40.20
2023-05-11T00:06:14.235Z,42.01
2023-05-11T00:07:14.236Z,38.82
2023-05-11T00:08:16.785Z,58.82
2023-05-11T00:09:15.239Z,43.52
2023-05-11T00:10:14.233Z,55.35
2023-05-11T00:11:14.195Z,53.63
2023-05-11T00:12:14.209Z,49.44
2023-05-11T00:13:14.182Z,49.79
2023-05-11T00:14:14.199Z,41.74
2023-05-11T00:15:14.173Z,54.12
2023-05-11T00:16:14.209Z,48.68
2023-05-11T00:17:14.151Z,56.30
2023-05-11T00:18:14.175Z,40.19
2023-05-11T00:19:14.162Z,45.93
2023-05-11T00:20:14.128Z,35.45
2023-05-11T00:21:14.118Z,37.64
2023-05-11T00:22:14.113Z,37.73
2023-05-11T00:23:14.128Z,44.22
2023-05-11T00:24:14.124Z,36.03
2023-05-11T00:25:14.092Z,51.18
2023-05-11T00:26:14.084Z,48.56
2023-05-11T00:27:14.067Z,49.30
2023-05-11T00:28:14.084Z,48.52
2023-05-11T00:29:14.051Z,35.28
2023-05-11T00:30:14.045Z,47.28
2023-05-11T00:31:14.072Z,36.03
2023-05-11T00:32:14.028Z,47.75
2023-05-11T00:33:14.040Z,45.95
2023-05-11T00:34:14.011Z,50.98
2023-05-11T00:35:14.045Z,52.23
2023-05-11T00:36:13.999Z,48.64
2023-05-11T00:37:14.015Z,35.38
2023-05-11T00:38:14.007Z,45.04
2023-05-11T00:39:13.970Z,51.62
2023-05-11T00:40:13.969Z,39.22
2023-05-11T00:41:13.960Z,52.34
2023-05-11T00:42:13.967Z,56.52
2023-05-11T00:43:13.937Z,36.53
2023-05-11T00:44:13.926Z,39.64
2023-05-11T00:45:14.944Z,57.51
2023-05-11T00:46:13.989Z,49.38
2023-05-11T00:47:13.971Z,39.99
2023-05-11T00:48:13.914Z,46.10
2023-05-11T00:49:13.904Z,56.79
2023-05-11T00:50:13.893Z,57.14
2023-05-11T00:51:13.908Z,38.79
2023-05-11T00:52:13.896Z,59.33
2023-05-11T00:53:13.863Z,50.46
2023-05-11T00:54:13.860Z,37.34
2023-05-11T00:55:13.859Z,50.22
2023-05-11T00:56:13.864Z,56.56
2023-05-11T00:57:13.838Z,51.71
2023-05-11T00:58:13.833Z,50.84
2023-05-11T00:59:13.826Z,48.66
2023-05-11T01:00:13.814Z,53.00
2023-05-11T01:01:13.865Z,46.78
2023-05-11T01:02:13.847Z,38.19
2023-05-11T01:03:13.807Z,45.27
2023-05-11T01:04:13.788Z,54.83
2023-05-11T01:05:13.811Z,57.10
2023-05-11T01:06:13.806Z,49.04
2023-05-11T01:07:13.765Z,36.88
2023-05-11T01:08:13.764Z,44.17
2023-05-11T01:09:13.744Z,38.96
2023-05-11T01:10:13.759Z,36.64
2023-05-11T01:11:13.852Z,44.58
2023-05-11T01:12:13.717Z,57.11
2023-05-11T01:13:13.711Z,58.72
2023-05-11T01:14:13.707Z,51.98
2023-05-11T01:15:13.729Z,43.37
2023-05-11T01:16:13.723Z,53.61
2023-05-11T01:17:13.678Z,49.78
2023-05-11T01:18:13.674Z,45.60
2023-05-11T01:19:13.695Z,58.24
2023-05-11T01:20:13.711Z,51.11
2023-05-11T01:21:13.652Z,51.08
2023-05-11T01:22:13.642Z,51.68
2023-05-11T01:23:13.633Z,57.80
2023-05-11T01:24:13.660Z,47.59
2023-05-11T01:25:13.625Z,58.28
2023-05-11T01:26:13.614Z,45.30
2023-05-11T01:27:13.605Z,51.09
2023-05-11T01:28:13.599Z,44.99
2023-05-11T01:29:13.616Z,57.45
2023-05-11T01:30:13.579Z,49.28
2023-05-11T01:31:13.575Z,49.09
2023-05-11T01:32:13.599Z,44.41
2023-05-11T01:33:13.600Z,50.24
2023-05-11T01:34:13.577Z,40.30
2023-05-11T01:35:13.547Z,42.51
2023-05-11T01:36:13.541Z,56.79
2023-05-11T01:37:13.527Z,46.64
2023-05-11T01:38:13.543Z,51.76
2023-05-11T01:39:13.517Z,43.96
2023-05-11T01:40:13.520Z,35.94
2023-05-11T01:41:13.493Z,35.76
2023-05-11T01:42:13.489Z,45.33
2023-05-11T01:43:13.513Z,64.77
2023-05-11T01:44:13.478Z,54.92
2023-05-11T01:45:13.476Z,38.46
2023-05-11T01:46:13.489Z,37.85
2023-05-11T01:47:13.476Z,51.55
2023-05-11T01:48:13.476Z,62.92
2023-05-11T01:49:13.431Z,53.86
2023-05-11T01:50:13.431Z,44.12
2023-05-11T01:51:13.419Z,37.41
2023-05-11T01:52:13.461Z,39.25
2023-05-11T01:53:13.416Z,41.23
2023-05-11T01:54:13.400Z,61.53
2023-05-11T01:55:13.389Z,45.01
2023-05-11T01:56:13.388Z,48.18
2023-05-11T01:57:13.404Z,53.47
2023-05-11T01:58:13.373Z,42.32
2023-05-11T01:59:13.358Z,48.51
2023-05-11T02:00:13.356Z,53.04
2023-05-11T02:01:13.389Z,49.48
2023-05-11T02:02:13.388Z,52.54
2023-05-11T02:03:13.385Z,40.80
2023-05-11T02:04:13.323Z,37.37
2023-05-11T02:05:13.315Z,40.91
2023-05-11T02:06:13.403Z,56.84
2023-05-11T02:07:13.298Z,56.24
2023-05-11T02:08:13.291Z,43.68
2023-05-11T02:09:13.286Z,58.13
2023-05-11T02:10:13.272Z,59.54
2023-05-11T02:11:13.302Z,52.90
2023-05-11T02:12:13.262Z,36.92
2023-05-11T02:13:13.254Z,52.60
2023-05-11T02:14:13.267Z,58.60
2023-05-11T02:15:13.233Z,44.01
2023-05-11T02:16:13.294Z,52.81
2023-05-11T02:17:13.237Z,51.60
2023-05-11T02:18:13.212Z,50.11
2023-05-11T02:19:13.204Z,55.87
2023-05-11T02:20:13.213Z,61.71
2023-05-11T02:21:13.220Z,56.15
2023-05-11T02:22:13.180Z,41.77
2023-05-11T02:23:13.177Z,46.88
2023-05-11T02:24:13.164Z,51.67
2023-05-11T02:25:13.184Z,58.17
2023-05-11T02:26:13.144Z,46.24
2023-05-11T02:27:13.145Z,59.07
2023-05-11T02:28:13.131Z,51.84
2023-05-11T02:29:13.132Z,53.64
2023-05-11T02:30:13.147Z,54.09
2023-05-11T02:31:13.157Z,41.98
2023-05-11T02:32:13.098Z,52.59
2023-05-11T02:33:13.095Z,49.18
2023-05-11T02:34:13.110Z,51.00
2023-05-11T02:35:13.121Z,57.00
2023-05-11T02:36:13.095Z,56.54
2023-05-11T02:37:13.069Z,52.87
2023-05-11T02:38:13.056Z,54.03
2023-05-11T02:39:13.075Z,50.53
2023-05-11T02:40:13.042Z,49.41
2023-05-11T02:41:13.032Z,62.75
2023-05-11T02:42:13.025Z,52.08
2023-05-11T02:43:13.014Z,40.62
2023-05-11T02:44:13.041Z,59.02
2023-05-11T02:45:13.030Z,52.47
2023-05-11T02:46:13.060Z,46.82
2023-05-11T02:47:12.984Z,52.23
2023-05-11T02:48:12.983Z,40.58
2023-05-11T02:49:13.004Z,51.37
2023-05-11T02:50:12.961Z,41.57
2023-05-11T02:51:12.977Z,45.48
2023-05-11T02:52:12.976Z,49.23
2023-05-11T02:53:12.974Z,56.62
2023-05-11T02:54:12.982Z,50.74
2023-05-11T02:55:12.921Z,51.54
2023-05-11T02:56:12.919Z,45.61
2023-05-11T02:57:12.906Z,53.49
2023-05-11T02:58:13.030Z,50.66
2023-05-11T02:59:12.894Z,52.05
2023-05-11T03:00:12.916Z,59.82
2023-05-11T03:01:13.024Z,56.00
2023-05-11T03:02:12.936Z,57.21
2023-05-11T03:03:12.982Z,59.72
2023-05-11T03:04:12.862Z,51.55
2023-05-11T03:05:12.850Z,47.70
2023-05-11T03:06:12.834Z,55.57
2023-05-11T03:07:12.856Z,46.87
2023-05-11T03:08:12.860Z,49.66
2023-05-11T03:09:12.819Z,51.40
2023-05-11T03:10:12.811Z,46.48
2023-05-11T03:11:12.803Z,55.85
2023-05-11T03:12:12.816Z,48.48
2023-05-11T03:13:12.782Z,56.74
2023-05-11T03:14:12.776Z,56.68
2023-05-11T03:15:12.785Z,49.60
2023-05-11T03:16:12.803Z,47.97
2023-05-11T03:17:12.773Z,51.56
2023-05-11T03:18:12.802Z,57.90
2023-05-11T03:19:12.733Z,50.68
2023-05-11T03:20:12.728Z,49.76
2023-05-11T03:21:12.753Z,59.80
2023-05-11T03:22:12.740Z,56.64
2023-05-11T03:23:12.714Z,52.45
2023-05-11T03:24:12.696Z,60.11
2023-05-11T03:25:12.698Z,60.23
2023-05-11T03:26:12.709Z,54.75
2023-05-11T03:27:12.686Z,54.36
2023-05-11T03:28:12.661Z,62.59
2023-05-11T03:29:12.656Z,53.20
2023-05-11T03:30:12.653Z,55.99
2023-05-11T03:31:12.693Z,59.50
2023-05-11T03:32:12.697Z,56.02
2023-05-11T03:33:12.727Z,57.39
2023-05-11T03:34:12.611Z,57.32
2023-05-11T03:35:12.617Z,62.32
2023-05-11T03:36:12.634Z,51.18
2023-05-11T03:37:12.605Z,56.76
2023-05-11T03:38:12.589Z,62.81
2023-05-11T03:39:12.600Z,60.82
2023-05-11T03:40:12.597Z,61.06
2023-05-11T03:41:12.601Z,57.91
2023-05-11T03:42:12.573Z,61.52
2023-05-11T03:43:12.584Z,58.56
2023-05-11T03:44:12.573Z,63.08
2023-05-11T03:45:12.563Z,60.42
2023-05-11T03:46:12.580Z,58.94
2023-05-11T03:47:12.520Z,55.79
2023-05-11T03:48:12.516Z,56.93
2023-05-11T03:49:13.881Z,59.67
2023-05-11T03:50:13.565Z,58.68
2023-05-11T03:51:12.489Z,56.21
2023-05-11T03:52:12.495Z,56.45
2023-05-11T03:53:12.483Z,58.43
2023-05-11T03:54:12.509Z,55.21
2023-05-11T03:55:12.484Z,57.41
2023-05-11T03:56:12.451Z,55.21
2023-05-11T03:57:12.443Z,54.57
2023-05-11T03:58:12.437Z,57.41
2023-05-11T03:59:12.457Z,57.02
2023-05-11T04:00:12.414Z,58.70
2023-05-11T04:01:12.411Z,57.55
2023-05-11T04:02:12.437Z,56.06
2023-05-11T04:03:12.560Z,55.90
2023-05-11T04:04:12.441Z,51.38
2023-05-11T04:05:12.410Z,51.97
2023-05-11T04:06:12.365Z,59.60
2023-05-11T04:07:12.363Z,53.75
2023-05-11T04:08:12.355Z,57.41
2023-05-11T04:09:12.390Z,53.31
2023-05-11T04:10:12.348Z,57.30
2023-05-11T04:11:12.327Z,55.82
2023-05-11T04:12:12.320Z,60.72
2023-05-11T04:13:12.342Z,54.05
2023-05-11T04:14:12.334Z,56.21
2023-05-11T04:15:12.306Z,58.10
2023-05-11T04:16:12.361Z,54.68
2023-05-11T04:17:12.291Z,58.35
2023-05-11T04:18:12.332Z,59.63
2023-05-11T04:19:12.266Z,60.42
2023-05-11T04:20:12.274Z,61.54
2023-05-11T04:21:12.250Z,57.74
2023-05-11T04:22:12.275Z,53.98
2023-05-11T04:23:12.266Z,60.16
2023-05-11T04:24:12.226Z,61.28
2023-05-11T04:25:12.218Z,59.68
2023-05-11T04:26:12.229Z,60.94
2023-05-11T04:27:12.205Z,60.24
2023-05-11T04:28:12.216Z,60.29
2023-05-11T04:29:12.191Z,59.91
2023-05-11T04:30:12.191Z,62.16
2023-05-11T04:31:12.211Z,57.65
2023-05-11T04:32:12.190Z,58.57
2023-05-11T04:33:12.188Z,62.50
2023-05-11T04:34:12.162Z,64.17
2023-05-11T04:35:12.139Z,61.79
2023-05-11T04:36:12.136Z,62.50
2023-05-11T04:37:12.171Z,62.78
2023-05-11T04:38:12.119Z,59.51
2023-05-11T04:39:12.123Z,62.68
2023-05-11T04:40:12.113Z,64.14
2023-05-11T04:41:12.112Z,61.81
2023-05-11T04:42:12.117Z,59.95
2023-05-11T04:43:12.106Z,62.41
2023-05-11T04:44:12.084Z,64.13
2023-05-11T04:45:12.061Z,64.52
2023-05-11T04:46:12.271Z,62.37
2023-05-11T04:47:12.074Z,62.50
2023-05-11T04:48:12.094Z,64.55
2023-05-11T04:49:12.030Z,64.06
2023-05-11T04:50:12.017Z,63.06
2023-05-11T04:51:12.053Z,64.88
2023-05-11T04:52:12.033Z,59.28
2023-05-11T04:53:12.001Z,56.11
2023-05-11T04:54:11.998Z,63.79
2023-05-11T04:55:12.004Z,63.04
2023-05-11T04:56:12.003Z,63.31
2023-05-11T04:57:11.969Z,58.53
2023-05-11T04:58:11.956Z,61.35
2023-05-11T04:59:11.954Z,61.57
2023-05-11T05:00:12.081Z,62.00
2023-05-11T05:01:11.990Z,63.90
2023-05-11T05:02:11.931Z,59.16
2023-05-11T05:03:11.919Z,59.99
2023-05-11T05:04:12.071Z,59.72
2023-05-11T05:05:11.939Z,61.07
2023-05-11T05:06:11.916Z,59.78
2023-05-11T05:07:12.898Z,61.46
2023-05-11T05:08:11.886Z,60.72
2023-05-11T05:09:11.876Z,60.79
2023-05-11T05:10:11.946Z,60.66
2023-05-11T05:11:11.868Z,61.52
2023-05-11T05:12:11.856Z,64.64
2023-05-11T05:13:11.843Z,63.33
2023-05-11T05:14:11.835Z,64.95
2023-05-11T05:15:12.091Z,64.09
2023-05-11T05:16:11.909Z,61.97
2023-05-11T05:17:11.886Z,63.61
2023-05-11T05:18:11.841Z,60.22
2023-05-11T05:19:11.822Z,56.29
2023-05-11T05:20:11.812Z,61.73
2023-05-11T05:21:11.780Z,64.53
2023-05-11T05:22:11.780Z,62.34
2023-05-11T05:23:11.777Z,62.02
2023-05-11T05:24:11.780Z,63.25
2023-05-11T05:25:11.790Z,57.28
2023-05-11T05:26:11.768Z,61.21
2023-05-11T05:27:11.756Z,61.33
2023-05-11T05:28:11.735Z,59.31
2023-05-11T05:29:11.766Z,61.50
2023-05-11T05:30:11.710Z,63.15
2023-05-11T05:31:11.794Z,62.18
2023-05-11T05:32:11.703Z,61.51
2023-05-11T05:33:11.755Z,63.57
2023-05-11T05:34:13.563Z,60.38
2023-05-11T05:35:11.673Z,57.74
2023-05-11T05:36:11.673Z,59.20
2023-05-11T05:37:11.653Z,62.36
2023-05-11T05:38:11.694Z,60.14
2023-05-11T05:39:11.671Z,60.24
2023-05-11T05:40:11.636Z,53.28
2023-05-11T05:41:11.626Z,62.49
2023-05-11T05:42:11.617Z,58.25
2023-05-11T05:43:11.642Z,59.21
2023-05-11T05:44:11.621Z,62.21
2023-05-11T05:45:13.200Z,61.35
2023-05-11T05:46:11.598Z,61.07
2023-05-11T05:47:11.579Z,58.21
2023-05-11T05:48:11.602Z,59.73
2023-05-11T05:49:11.561Z,60.36
2023-05-11T05:50:11.562Z,62.75
2023-05-11T05:51:11.545Z,58.56
2023-05-11T05:52:11.566Z,59.23
2023-05-11T05:53:11.572Z,62.73
2023-05-11T05:54:11.532Z,60.10
2023-05-11T05:55:11.525Z,65.18
2023-05-11T05:56:11.518Z,60.97
2023-05-11T05:57:13.167Z,63.23
2023-05-11T05:58:11.489Z,60.15
2023-05-11T05:59:11.483Z,64.68
2023-05-11T06:00:11.466Z,59.17
2023-05-11T06:01:11.467Z,61.32
2023-05-11T06:02:11.535Z,57.64
2023-05-11T06:03:11.542Z,63.66
2023-05-11T06:04:11.567Z,60.44
2023-05-11T06:05:11.440Z,57.40
2023-05-11T06:06:11.451Z,62.44
2023-05-11T06:07:11.439Z,59.10
2023-05-11T06:08:11.633Z,62.80
2023-05-11T06:09:11.417Z,61.87
2023-05-11T06:10:11.398Z,60.56
2023-05-11T06:11:11.415Z,59.70
2023-05-11T06:12:11.382Z,61.27
2023-05-11T06:13:11.381Z,59.64
2023-05-11T06:14:11.374Z,60.53
2023-05-11T06:15:11.349Z,58.86
2023-05-11T06:16:11.409Z,51.76
2023-05-11T06:17:11.353Z,61.72
2023-05-11T06:18:11.356Z,61.04
2023-05-11T06:19:11.375Z,55.88
2023-05-11T06:20:11.331Z,60.74
2023-05-11T06:21:11.335Z,60.88
2023-05-11T06:22:11.301Z,60.92
2023-05-11T06:23:11.284Z,62.37
2023-05-11T06:24:11.281Z,56.91
2023-05-11T06:25:11.293Z,61.22
2023-05-11T06:26:11.260Z,59.21
2023-05-11T06:27:11.258Z,57.22
2023-05-11T06:28:11.247Z,59.82
2023-05-11T06:29:11.241Z,61.51
2023-05-11T06:30:11.254Z,58.05
2023-05-11T06:31:11.263Z,60.03
2023-05-11T06:32:11.215Z,60.75
2023-05-11T06:33:11.217Z,57.78
2023-05-11T06:34:11.203Z,62.00
2023-05-11T06:35:11.217Z,60.08
2023-05-11T06:36:11.183Z,60.99
2023-05-11T06:37:11.186Z,61.94
2023-05-11T06:38:11.163Z,61.24
2023-05-11T06:39:11.193Z,60.58
2023-05-11T06:40:11.170Z,61.03
2023-05-11T06:41:11.226Z,59.74
2023-05-11T06:42:11.163Z,63.23
2023-05-11T06:43:11.133Z,61.75
2023-05-11T06:44:11.143Z,63.94
2023-05-11T06:45:11.153Z,60.47
2023-05-11T06:46:11.154Z,61.18
2023-05-11T06:47:11.108Z,63.94
2023-05-11T06:48:11.116Z,63.09
2023-05-11T06:49:11.115Z,60.30
2023-05-11T06:50:11.077Z,61.73
2023-05-11T06:51:11.067Z,61.63
2023-05-11T06:52:11.064Z,61.57
2023-05-11T06:53:11.075Z,58.90
2023-05-11T06:54:11.067Z,63.67
2023-05-11T06:55:11.042Z,59.02
2023-05-11T06:56:11.028Z,61.14
2023-05-11T06:57:12.662Z,63.89
2023-05-11T06:58:11.058Z,59.94
2023-05-11T06:59:11.006Z,62.63
2023-05-11T07:00:11.004Z,60.29
2023-05-11T07:01:11.016Z,64.85
2023-05-11T07:02:10.988Z,60.54
2023-05-11T07:03:11.493Z,64.04
2023-05-11T07:04:11.035Z,60.50
2023-05-11T07:05:10.961Z,62.35
2023-05-11T07:06:10.963Z,63.62
2023-05-11T07:07:10.968Z,59.53
2023-05-11T07:08:10.970Z,60.49
2023-05-11T07:09:10.929Z,58.98
2023-05-11T07:10:10.918Z,60.14
2023-05-11T07:11:10.913Z,57.97
2023-05-11T07:12:10.928Z,61.88
2023-05-11T07:13:10.901Z,64.62
2023-05-11T07:14:10.895Z,61.12
2023-05-11T07:15:10.885Z,68.08
2023-05-11T07:16:10.878Z,67.64
2023-05-11T07:17:10.960Z,63.19
2023-05-11T07:18:10.900Z,62.46
2023-05-11T07:19:10.969Z,60.21
2023-05-11T07:20:10.845Z,62.35
2023-05-11T07:21:10.864Z,58.85
2023-05-11T07:22:12.185Z,60.00
2023-05-11T07:23:10.822Z,61.34
2023-05-11T07:24:10.811Z,58.09
2023-05-11T07:25:10.807Z,61.13
2023-05-11T07:26:10.818Z,60.71
2023-05-11T07:27:10.803Z,60.15
2023-05-11T07:28:10.778Z,57.14
2023-05-11T07:29:10.851Z,59.92
2023-05-11T07:30:10.793Z,59.09
2023-05-11T07:31:10.812Z,58.69
2023-05-11T07:32:10.745Z,60.89
2023-05-11T07:33:10.781Z,60.23
2023-05-11T07:34:10.745Z,59.11
2023-05-11T07:35:10.720Z,57.83
2023-05-11T07:36:10.734Z,61.17
2023-05-11T07:37:10.703Z,57.88
2023-05-11T07:38:10.710Z,62.06
2023-05-11T07:39:10.740Z,54.83
2023-05-11T07:40:10.714Z,60.74
2023-05-11T07:41:12.505Z,61.75
2023-05-11T07:42:11.691Z,57.28
2023-05-11T07:43:10.668Z,57.23
2023-05-11T07:44:10.655Z,58.07
2023-05-11T07:45:10.672Z,62.28
2023-05-11T07:46:10.680Z,63.28
2023-05-11T07:47:10.627Z,62.79
2023-05-11T07:48:10.652Z,60.13
2023-05-11T07:49:17.235Z,61.23
2023-05-11T07:50:12.674Z,54.03
2023-05-11T07:51:10.599Z,59.93
2023-05-11T07:52:10.593Z,53.87
2023-05-11T07:53:10.586Z,62.59
2023-05-11T07:54:10.603Z,61.02
2023-05-11T07:55:10.598Z,59.32
2023-05-11T07:56:10.571Z,56.33
2023-05-11T07:57:10.570Z,60.81
2023-05-11T07:58:10.547Z,59.62
2023-05-11T07:59:10.565Z,58.23
2023-05-11T08:00:11.228Z,59.53
2023-05-11T08:01:11.892Z,61.14
2023-05-11T08:02:12.337Z,62.79
2023-05-11T08:03:11.523Z,61.24
2023-05-11T08:04:10.531Z,60.23
2023-05-11T08:05:10.506Z,58.32
2023-05-11T08:06:10.513Z,62.01
2023-05-11T08:07:10.477Z,59.62
2023-05-11T08:08:10.492Z,58.31
2023-05-11T08:09:10.487Z,62.40
2023-05-11T08:10:10.468Z,60.07
2023-05-11T08:11:10.466Z,60.29
2023-05-11T08:12:10.447Z,57.14
2023-05-11T08:13:10.456Z,62.98
2023-05-11T08:14:10.424Z,63.45
2023-05-11T08:15:10.422Z,58.00
2023-05-11T08:16:10.433Z,61.38
2023-05-11T08:17:11.404Z,58.01
2023-05-11T08:18:10.443Z,60.13
2023-05-11T08:19:10.416Z,62.87
2023-05-11T08:20:10.386Z,60.29
2023-05-11T08:21:10.391Z,61.27
2023-05-11T08:22:10.405Z,57.78
2023-05-11T08:23:10.394Z,55.83
2023-05-11T08:24:10.352Z,62.86
2023-05-11T08:25:10.355Z,62.48
2023-05-11T08:26:10.328Z,61.54
2023-05-11T08:27:10.354Z,59.33
2023-05-11T08:28:10.323Z,62.45
2023-05-11T08:29:10.329Z,63.11
2023-05-11T08:30:11.779Z,63.21
2023-05-11T08:31:11.304Z,63.23
2023-05-11T08:32:10.466Z,62.83
2023-05-11T08:33:29.147Z,56.47
2023-05-11T08:34:19.168Z,61.11
2023-05-11T08:35:12.316Z,58.79
2023-05-11T08:36:10.267Z,64.02
2023-05-11T08:37:10.273Z,53.10
2023-05-11T08:38:10.242Z,64.14
2023-05-11T08:39:10.227Z,58.64
2023-05-11T08:40:11.016Z,59.69
2023-05-11T08:41:10.330Z,59.14
2023-05-11T08:42:10.253Z,61.72
2023-05-11T08:43:10.201Z,58.28
2023-05-11T08:44:10.212Z,63.24
2023-05-11T08:45:10.190Z,61.32
2023-05-11T08:46:10.227Z,64.59
2023-05-11T08:48:11.192Z,65.33
2023-05-11T08:49:10.171Z,60.18
2023-05-11T08:50:10.151Z,63.73
2023-05-11T08:51:10.163Z,63.60
2023-05-11T08:52:10.128Z,61.94
2023-05-11T08:53:10.133Z,62.73
2023-05-11T08:54:10.170Z,61.02
2023-05-11T08:55:10.175Z,57.39
2023-05-11T08:56:10.128Z,58.37
2023-05-11T08:57:10.097Z,58.77
2023-05-11T08:58:10.098Z,58.20
2023-05-11T08:59:10.081Z,62.68
2023-05-11T09:00:10.096Z,61.11
2023-05-11T09:01:10.090Z,58.97
2023-05-11T09:02:10.056Z,59.73
2023-05-11T09:03:10.112Z,61.40
2023-05-11T09:04:10.037Z,60.20
2023-05-11T09:05:10.095Z,58.17
2023-05-11T09:06:10.022Z,59.48
2023-05-11T09:07:10.020Z,64.55
2023-05-11T09:08:10.013Z,61.59
2023-05-11T09:09:10.024Z,62.59
2023-05-11T09:10:11.566Z,62.72
2023-05-11T09:11:10.010Z,60.59
2023-05-11T09:12:09.999Z,63.81
2023-05-11T09:13:09.962Z,61.02
2023-05-11T09:14:09.999Z,62.17
2023-05-11T09:15:09.957Z,63.39
2023-05-11T09:16:23.362Z,63.30
2023-05-11T09:17:11.991Z,60.94
2023-05-11T09:18:09.969Z,64.21
2023-05-11T09:19:10.011Z,65.74
2023-05-11T09:20:09.917Z,56.92
2023-05-11T09:21:09.900Z,60.16
2023-05-11T09:22:09.908Z,58.20
2023-05-11T09:23:09.916Z,61.03
2023-05-11T09:24:09.910Z,63.96
2023-05-11T09:25:09.872Z,62.96
2023-05-11T09:26:09.862Z,57.66
2023-05-11T09:27:09.920Z,63.48
2023-05-11T09:29:10.846Z,63.42
2023-05-11T09:30:09.846Z,59.55
2023-05-11T09:31:09.858Z,62.46
2023-05-11T09:32:09.815Z,62.41
2023-05-11T09:33:09.875Z,63.65
2023-05-11T09:34:09.824Z,59.43
2023-05-11T09:35:09.800Z,59.78
2023-05-11T09:36:09.782Z,62.04
2023-05-11T09:37:09.777Z,52.48
2023-05-11T09:38:09.807Z,62.44
2023-05-11T09:39:15.533Z,64.17
2023-05-11T09:40:25.874Z,61.97
2023-05-11T09:41:11.755Z,65.05
2023-05-11T09:42:09.776Z,60.72
2023-05-11T09:43:09.759Z,62.93
2023-05-11T09:44:09.749Z,59.32
2023-05-11T09:45:09.718Z,63.27
2023-05-11T09:46:09.746Z,59.88
2023-05-11T09:47:09.746Z,64.32
2023-05-11T09:48:09.739Z,61.64
2023-05-11T09:49:09.685Z,62.02
2023-05-11T09:50:09.700Z,64.10
2023-05-11T09:51:09.671Z,59.33
2023-05-11T09:52:09.710Z,61.01
2023-05-11T09:53:09.662Z,57.17
2023-05-11T09:54:09.646Z,60.92
2023-05-11T09:55:09.640Z,59.62
2023-05-11T09:56:09.648Z,63.87
2023-05-11T09:57:09.935Z,60.26
2023-05-11T09:58:09.623Z,62.44
2023-05-11T09:59:09.613Z,60.22
2023-05-11T10:00:09.610Z,62.16
2023-05-11T10:01:09.649Z,57.33
2023-05-11T10:02:09.609Z,58.52
2023-05-11T10:03:09.656Z,61.05
2023-05-11T10:04:23.205Z,59.11
2023-05-11T10:05:11.560Z,60.16
2023-05-11T10:06:09.598Z,59.81
2023-05-11T10:07:09.548Z,59.48
2023-05-11T10:08:09.561Z,58.39
2023-05-11T10:09:09.585Z,60.85
2023-05-11T10:10:09.546Z,58.86
2023-05-11T10:11:09.538Z,57.54
2023-05-11T10:12:09.516Z,55.86
2023-05-11T10:13:09.509Z,59.84
2023-05-11T10:14:09.494Z,62.13
2023-05-11T10:15:09.509Z,61.75
2023-05-11T10:16:09.611Z,60.65
2023-05-11T10:17:09.492Z,65.68
2023-05-11T10:18:09.571Z,59.02
2023-05-11T10:19:09.709Z,59.77
2023-05-11T10:20:09.476Z,62.12
2023-05-11T10:21:09.446Z,57.72
2023-05-11T10:22:09.461Z,61.56
2023-05-11T10:23:09.436Z,62.09
2023-05-11T10:24:09.456Z,59.11
2023-05-11T10:25:09.435Z,59.42
2023-05-11T10:26:09.418Z,61.21
2023-05-11T10:27:09.403Z,61.14
2023-05-11T10:28:09.374Z,60.48
2023-05-11T10:29:09.409Z,59.54
2023-05-11T10:30:09.369Z,61.43
2023-05-11T10:31:09.359Z,55.91
2023-05-11T10:32:09.391Z,63.40
2023-05-11T10:33:09.381Z,56.98
2023-05-11T10:34:09.365Z,61.22
2023-05-11T10:35:09.330Z,60.42
2023-05-11T10:36:09.322Z,61.90
2023-05-11T10:37:09.313Z,61.51
2023-05-11T10:38:09.323Z,61.50
2023-05-11T10:39:09.337Z,62.21
2023-05-11T10:40:09.300Z,58.19
2023-05-11T10:41:09.278Z,60.57
2023-05-11T10:42:09.272Z,62.31
2023-05-11T10:43:09.295Z,61.30
2023-05-11T10:44:09.284Z,59.76
2023-05-11T10:45:09.258Z,61.82
2023-05-11T10:46:09.267Z,62.06
2023-05-11T10:47:09.239Z,58.70
2023-05-11T10:48:09.273Z,61.69
2023-05-11T10:49:09.218Z,62.50
2023-05-11T10:50:09.212Z,60.86
2023-05-11T10:51:09.228Z,63.09
2023-05-11T10:52:09.199Z,63.43
2023-05-11T10:53:09.226Z,59.41
2023-05-11T10:54:09.172Z,61.96
2023-05-11T10:55:09.169Z,59.48
2023-05-11T10:56:09.165Z,62.47
2023-05-11T10:57:09.185Z,60.81
2023-05-11T10:58:09.190Z,64.04
2023-05-11T10:59:09.151Z,61.40
2023-05-11T11:00:09.180Z,62.70
2023-05-11T11:01:09.257Z,61.84
2023-05-11T11:02:09.167Z,61.26
2023-05-11T11:03:09.111Z,61.08
2023-05-11T11:04:09.098Z,60.66
2023-05-11T11:05:09.125Z,57.39
2023-05-11T11:06:09.176Z,56.75
2023-05-11T11:07:09.118Z,63.22
2023-05-11T11:08:09.071Z,63.67
2023-05-11T11:09:09.078Z,61.46
2023-05-11T11:10:09.067Z,61.42
2023-05-11T11:11:09.082Z,62.67
2023-05-11T11:12:09.082Z,65.07
2023-05-11T11:13:09.040Z,63.29
2023-05-11T11:14:09.030Z,64.26
2023-05-11T11:15:09.018Z,62.06
2023-05-11T11:16:09.049Z,64.12
2023-05-11T11:17:09.046Z,63.51
2023-05-11T11:18:09.026Z,61.96
2023-05-11T11:19:09.015Z,62.37
2023-05-11T11:20:08.994Z,61.21
2023-05-11T11:21:08.998Z,57.91
2023-05-11T11:22:08.970Z,64.60
2023-05-11T11:23:08.960Z,61.51
2023-05-11T11:24:08.958Z,62.83
2023-05-11T11:25:08.951Z,64.23
2023-05-11T11:26:08.963Z,61.06
2023-05-11T11:27:08.929Z,62.67
2023-05-11T11:28:08.917Z,60.58
2023-05-11T11:29:10.019Z,62.77
2023-05-11T11:30:08.919Z,64.36
2023-05-11T11:31:08.991Z,58.56
2023-05-11T11:32:08.888Z,55.16
2023-05-11T11:33:08.887Z,56.92
2023-05-11T11:34:08.863Z,51.45
2023-05-11T11:35:08.894Z,57.61
2023-05-11T11:36:08.879Z,62.03
2023-05-11T11:37:08.857Z,56.10
2023-05-11T11:38:08.844Z,57.15
2023-05-11T11:39:08.832Z,53.86
2023-05-11T11:40:14.583Z,55.78
2023-05-11T11:41:10.818Z,54.87
2023-05-11T11:42:08.811Z,56.27
2023-05-11T11:43:08.802Z,58.17
2023-05-11T11:44:08.794Z,60.11
2023-05-11T11:45:08.807Z,61.49
2023-05-11T11:46:08.792Z,61.50
2023-05-11T11:47:08.778Z,63.11
2023-05-11T11:48:08.826Z,61.96
2023-05-11T11:49:08.794Z,61.08
2023-05-11T11:50:08.783Z,56.61
2023-05-11T11:51:08.751Z,60.38
2023-05-11T11:52:08.740Z,60.15
2023-05-11T11:53:08.756Z,61.04
2023-05-11T11:54:09.069Z,60.73
2023-05-11T11:55:08.725Z,58.10
2023-05-11T11:56:08.708Z,60.97
2023-05-11T11:57:08.700Z,56.57
2023-05-11T11:58:08.684Z,61.24
2023-05-11T11:59:08.704Z,61.74
2023-05-11T12:00:08.676Z,62.94
2023-05-11T12:01:08.677Z,62.98
2023-05-11T12:02:08.659Z,59.03
2023-05-11T12:03:08.708Z,62.94
2023-05-11T12:04:08.789Z,58.10
2023-05-11T12:05:08.657Z,59.76
2023-05-11T12:06:08.618Z,63.72
2023-05-11T12:07:08.618Z,60.86
2023-05-11T12:08:08.639Z,57.20
2023-05-11T12:09:08.660Z,63.99
2023-05-11T12:10:08.617Z,64.38
2023-05-11T12:11:08.585Z,64.39
2023-05-11T12:12:08.570Z,61.88
2023-05-11T12:13:08.587Z,63.27
2023-05-11T12:14:08.562Z,62.49
2023-05-11T12:15:08.549Z,61.27
2023-05-11T12:16:08.588Z,60.43
2023-05-11T12:17:08.548Z,61.20
2023-05-11T12:18:08.631Z,61.00
2023-05-11T12:19:08.582Z,60.34
2023-05-11T12:20:08.554Z,61.04
2023-05-11T12:21:08.530Z,63.72
2023-05-11T12:22:08.519Z,60.48
2023-05-11T12:23:08.514Z,62.50
2023-05-11T12:24:08.477Z,63.46
2023-05-11T12:25:08.487Z,64.12
2023-05-11T12:26:08.468Z,63.51
2023-05-11T12:27:08.491Z,62.41
2023-05-11T12:28:08.447Z,65.72
2023-05-11T12:29:08.443Z,64.39
2023-05-11T12:30:08.462Z,64.19
2023-05-11T12:31:08.441Z,62.68
2023-05-11T12:32:08.529Z,59.75
2023-05-11T12:33:08.449Z,57.68
2023-05-11T12:34:08.403Z,63.19
2023-05-11T12:35:08.407Z,63.86
2023-05-11T12:36:08.396Z,63.85
2023-05-11T12:37:08.413Z,63.36
2023-05-11T12:38:08.377Z,64.21
2023-05-11T12:39:08.386Z,64.36
2023-05-11T12:40:08.400Z,63.73
2023-05-11T12:41:08.385Z,63.71
2023-05-11T12:42:08.371Z,65.04
2023-05-11T12:43:08.342Z,63.16
2023-05-11T12:44:08.324Z,64.25
2023-05-11T12:45:08.315Z,63.93
2023-05-11T12:46:08.361Z,62.83
2023-05-11T12:47:08.318Z,65.32
2023-05-11T12:48:08.321Z,66.12
2023-05-11T12:49:08.282Z,66.59
2023-05-11T12:50:08.424Z,65.99
2023-05-11T12:51:08.290Z,60.36
2023-05-11T12:52:08.273Z,68.06
2023-05-11T12:53:08.289Z,70.01
2023-05-11T12:54:08.262Z,64.96